createdAt,value
2023-04-18T00:01:25.067Z,6.37
2023-04-18T00:03:52.419Z,11.43
2023-04-18T00:06:22.050Z,6.43
2023-04-18T00:08:49.296Z,7.07
2023-04-18T00:11:16.209Z,7.83
2023-04-18T00:13:43.234Z,7.93
2023-04-18T00:16:10.352Z,5.67
2023-04-18T00:18:37.556Z,6.77
2023-04-18T00:21:04.698Z,6.37
2023-04-18T00:23:33.566Z,6.73
2023-04-18T00:26:00.945Z,7.23
2023-04-18T00:28:28.057Z,7.37
2023-04-18T00:30:55.265Z,7.80
2023-04-18T00:33:22.253Z,6.43
2023-04-18T00:35:52.186Z,7.17
2023-04-18T00:38:19.154Z,7.50
2023-04-18T00:40:48.150Z,5.47
2023-04-18T00:43:17.474Z,8.10
2023-04-18T00:45:44.660Z,8.73
2023-04-18T00:48:12.006Z,5.83
2023-04-18T00:50:40.615Z,6.47
2023-04-18T00:53:10.697Z,6.60
2023-04-18T00:55:39.336Z,6.23
2023-04-18T00:58:06.403Z,6.10
2023-04-18T01:00:33.412Z,6.00
2023-04-18T01:03:00.960Z,8.23
2023-04-18T01:05:28.186Z,6.73
2023-04-18T01:08:00.895Z,6.77
2023-04-18T01:10:29.183Z,7.57
2023-04-18T01:13:11.838Z,6.03
2023-04-18T01:15:44.075Z,5.83
2023-04-18T01:18:13.260Z,6.27
2023-04-18T01:20:45.764Z,6.33
2023-04-18T01:23:13.465Z,7.67
2023-04-18T01:25:40.394Z,6.23
2023-04-18T01:28:07.608Z,6.23
2023-04-18T01:30:34.833Z,6.83
2023-04-18T01:33:03.741Z,5.77
2023-04-18T01:35:31.092Z,6.53
2023-04-18T01:37:58.718Z,5.63
2023-04-18T01:40:27.517Z,6.20
2023-04-18T01:42:54.480Z,6.60
2023-04-18T01:45:22.413Z,5.93
2023-04-18T01:47:49.468Z,7.50
2023-04-18T01:50:16.458Z,6.10
2023-04-18T01:52:43.387Z,6.77
2023-04-18T01:55:10.750Z,6.37
2023-04-18T01:57:38.460Z,5.93
2023-04-18T02:00:06.673Z,7.20
2023-04-18T02:02:41.471Z,7.70
2023-04-18T02:05:09.140Z,7.13
2023-04-18T02:07:38.981Z,7.13
2023-04-18T02:10:06.498Z,6.30
2023-04-18T02:12:34.346Z,7.03
2023-04-18T02:15:01.430Z,7.20
2023-04-18T02:17:29.044Z,8.07
2023-04-18T02:19:56.053Z,6.77
2023-04-18T02:22:23.019Z,7.00
2023-04-18T02:24:49.951Z,7.57
2023-04-18T02:27:18.188Z,9.13
2023-04-18T02:29:45.073Z,7.27
2023-04-18T02:32:12.036Z,9.53
2023-04-18T02:34:39.447Z,6.87
2023-04-18T02:37:06.367Z,8.17
2023-04-18T02:39:33.244Z,9.53
2023-04-18T02:42:01.513Z,9.57
2023-04-18T02:44:28.456Z,9.63
2023-04-18T02:46:55.445Z,8.67
2023-04-18T02:49:22.413Z,7.93
2023-04-18T02:51:49.348Z,9.53
2023-04-18T02:54:17.147Z,10.47
2023-04-18T02:56:56.978Z,8.93
2023-04-18T02:59:46.871Z,9.90
2023-04-18T03:02:13.813Z,10.33
2023-04-18T03:04:48.175Z,8.73
2023-04-18T03:07:15.235Z,8.33
2023-04-18T03:09:42.213Z,8.10
2023-04-18T03:12:17.796Z,8.80
2023-04-18T03:14:45.087Z,10.67
2023-04-18T03:17:13.841Z,9.23
2023-04-18T03:19:45.414Z,8.53
2023-04-18T03:22:15.719Z,7.97
2023-04-18T03:24:55.505Z,9.47
2023-04-18T03:27:30.344Z,9.43
2023-04-18T03:29:57.254Z,7.73
2023-04-18T03:32:24.460Z,9.00
2023-04-18T03:34:51.638Z,8.23
2023-04-18T03:37:18.857Z,9.40
2023-04-18T03:39:50.727Z,8.90
2023-04-18T03:42:18.014Z,10.27
2023-04-18T03:44:45.117Z,10.17
2023-04-18T03:47:14.564Z,8.57
2023-04-18T03:49:44.231Z,8.33
2023-04-18T03:52:11.601Z,9.37
2023-04-18T03:54:38.688Z,9.63
2023-04-18T03:57:05.670Z,10.63
2023-04-18T03:59:35.933Z,8.70
2023-04-18T04:02:03.082Z,9.70
2023-04-18T04:04:30.037Z,9.77
2023-04-18T04:06:59.407Z,11.13
2023-04-18T04:09:27.122Z,10.50
2023-04-18T04:11:54.054Z,11.23
2023-04-18T04:14:22.705Z,10.70
2023-04-18T04:16:49.760Z,9.33
2023-04-18T04:19:17.682Z,9.23
2023-04-18T04:21:58.394Z,9.90
2023-04-18T04:24:26.344Z,10.13
2023-04-18T04:26:53.510Z,9.80
2023-04-18T04:29:24.632Z,11.67
2023-04-18T04:31:52.974Z,11.63
2023-04-18T04:34:34.498Z,9.97
2023-04-18T04:37:03.798Z,11.00
2023-04-18T04:39:34.765Z,9.83
2023-04-18T04:42:28.522Z,9.97
2023-04-18T04:45:08.173Z,11.07
2023-04-18T04:47:36.717Z,10.67
2023-04-18T04:50:06.177Z,12.27
2023-04-18T04:52:33.317Z,9.53
2023-04-18T04:55:00.581Z,11.20
2023-04-18T04:57:28.057Z,11.00
2023-04-18T04:59:55.103Z,11.57
2023-04-18T05:02:23.396Z,9.80
2023-04-18T05:04:50.493Z,10.90
2023-04-18T05:07:17.487Z,12.60
2023-04-18T05:09:44.479Z,13.73
2023-04-18T05:12:11.502Z,13.13
2023-04-18T05:14:38.425Z,11.77
2023-04-18T05:17:05.574Z,11.40
2023-04-18T05:19:32.484Z,11.47
2023-04-18T05:21:59.449Z,11.50
2023-04-18T05:24:26.754Z,12.80
2023-04-18T05:26:53.886Z,12.40
2023-04-18T05:29:20.853Z,14.47
2023-04-18T05:31:47.773Z,14.33
2023-04-18T05:34:14.853Z,12.23
2023-04-18T05:36:41.914Z,12.87
2023-04-18T05:39:08.847Z,13.93
2023-04-18T05:41:36.833Z,14.87
2023-04-18T05:44:05.615Z,15.67
2023-04-18T05:46:33.287Z,14.53
2023-04-18T05:49:00.709Z,15.43
2023-04-18T05:51:28.579Z,16.70
2023-04-18T05:53:55.706Z,18.40
2023-04-18T05:56:22.623Z,18.87
2023-04-18T05:58:51.297Z,17.77
2023-04-18T06:01:21.463Z,16.33
2023-04-18T06:03:48.591Z,17.97
2023-04-18T06:06:15.905Z,18.57
2023-04-18T06:08:42.886Z,21.17
2023-04-18T06:11:09.738Z,19.50
2023-04-18T06:13:37.396Z,17.37
2023-04-18T06:16:05.034Z,20.40
2023-04-18T06:18:32.070Z,22.10
2023-04-18T06:20:58.984Z,18.97
2023-04-18T06:23:26.115Z,20.87
2023-04-18T06:25:52.997Z,18.77
2023-04-18T06:28:19.924Z,20.20
2023-04-18T06:30:46.909Z,18.03
2023-04-18T06:33:13.958Z,17.63
2023-04-18T06:35:41.227Z,20.87
2023-04-18T06:38:08.874Z,15.47
2023-04-18T06:40:35.783Z,17.70
2023-04-18T06:43:02.905Z,14.03
2023-04-18T06:45:32.904Z,18.33
2023-04-18T06:48:00.249Z,16.87
2023-04-18T06:50:27.209Z,13.90
2023-04-18T06:52:54.123Z,18.10
2023-04-18T06:55:21.449Z,17.53
2023-04-18T06:57:48.718Z,17.07
2023-04-18T07:00:15.922Z,14.40
2023-04-18T07:02:43.657Z,16.30
2023-04-18T07:05:10.901Z,15.83
2023-04-18T07:07:37.872Z,16.47
2023-04-18T07:10:05.734Z,14.37
2023-04-18T07:12:32.691Z,16.50
2023-04-18T07:14:59.598Z,16.03
2023-04-18T07:17:26.522Z,14.57
2023-04-18T07:19:53.496Z,14.73
2023-04-18T07:22:20.475Z,14.87
2023-04-18T07:24:47.399Z,14.60
2023-04-18T07:27:15.273Z,16.33
2023-04-18T07:29:42.371Z,17.63
2023-04-18T07:32:09.388Z,16.70
2023-04-18T07:34:37.487Z,17.17
2023-04-18T07:37:04.470Z,17.43
2023-04-18T07:39:35.856Z,15.07
2023-04-18T07:42:06.223Z,16.40
2023-04-18T07:44:35.642Z,18.83
2023-04-18T07:47:03.234Z,16.73
2023-04-18T07:49:30.320Z,14.93
2023-04-18T07:51:57.580Z,17.20
2023-04-18T07:54:24.442Z,16.23
2023-04-18T07:56:51.345Z,14.90
2023-04-18T07:59:18.258Z,15.13
2023-04-18T08:01:45.251Z,14.33
2023-04-18T08:04:12.837Z,16.60
2023-04-18T08:06:39.778Z,15.60
2023-04-18T08:09:06.704Z,14.30
2023-04-18T08:11:34.344Z,14.87
2023-04-18T08:14:01.619Z,17.90
2023-04-18T08:16:29.177Z,17.00
2023-04-18T08:18:56.098Z,18.17
2023-04-18T08:21:22.990Z,15.53
2023-04-18T08:23:49.967Z,15.17
2023-04-18T08:26:16.863Z,16.20
2023-04-18T08:28:46.368Z,15.57
2023-04-18T08:31:15.071Z,15.13
2023-04-18T08:33:42.462Z,15.80
2023-04-18T08:36:09.973Z,16.67
2023-04-18T08:38:36.847Z,15.23
2023-04-18T08:41:03.736Z,15.20
2023-04-18T08:43:31.316Z,16.43
2023-04-18T08:45:59.863Z,15.57
2023-04-18T08:48:30.608Z,17.17
2023-04-18T08:50:58.945Z,17.03
2023-04-18T08:53:26.688Z,16.17
2023-04-18T08:55:57.379Z,18.40
2023-04-18T08:58:27.015Z,18.97
2023-04-18T09:00:55.003Z,17.30
2023-04-18T09:03:42.437Z,16.43
2023-04-18T09:06:16.185Z,15.93
2023-04-18T09:08:43.951Z,15.97
2023-04-18T09:11:26.161Z,16.27
2023-04-18T09:13:55.936Z,16.00
2023-04-18T09:16:23.733Z,15.40
2023-04-18T09:19:14.621Z,16.30
2023-04-18T09:21:47.199Z,18.73
2023-04-18T09:24:20.924Z,16.40
2023-04-18T09:26:49.836Z,17.43
2023-04-18T09:29:18.475Z,18.50
2023-04-18T09:31:54.709Z,17.60
2023-04-18T09:34:26.336Z,17.17
2023-04-18T09:37:07.761Z,20.27
2023-04-18T09:39:35.062Z,20.50
2023-04-18T09:42:02.512Z,20.47
2023-04-18T09:44:29.445Z,19.33
2023-04-18T09:46:56.456Z,20.87
2023-04-18T09:49:23.791Z,19.37
2023-04-18T09:52:02.929Z,18.20
2023-04-18T09:54:33.040Z,18.00
2023-04-18T09:57:01.780Z,19.70
2023-04-18T09:59:47.818Z,20.63
2023-04-18T10:02:23.120Z,20.33
2023-04-18T10:04:51.765Z,23.97
2023-04-18T10:07:18.938Z,19.47
2023-04-18T10:09:49.524Z,22.97
2023-04-18T10:12:17.966Z,22.93
2023-04-18T10:14:45.238Z,19.07
2023-04-18T10:17:14.063Z,22.07
2023-04-18T10:19:42.087Z,22.13
2023-04-18T10:22:09.164Z,21.27
2023-04-18T10:24:53.152Z,21.13
2023-04-18T10:27:49.269Z,22.40
2023-04-18T10:30:17.251Z,21.10
2023-04-18T10:32:46.774Z,21.13
2023-04-18T10:35:13.939Z,23.37
2023-04-18T10:37:59.470Z,22.87
2023-04-18T10:40:34.137Z,23.27
2023-04-18T10:43:01.669Z,21.97
2023-04-18T10:45:31.324Z,22.33
2023-04-18T10:48:30.225Z,21.90
2023-04-18T10:51:22.000Z,20.03
2023-04-18T10:53:52.943Z,21.43
2023-04-18T10:56:20.006Z,22.70
2023-04-18T10:58:51.527Z,22.83
2023-04-18T11:01:32.513Z,23.37
2023-04-18T11:04:00.415Z,19.77
2023-04-18T11:06:27.807Z,20.37
2023-04-18T11:09:11.866Z,19.70
2023-04-18T11:11:39.231Z,19.13
2023-04-18T11:14:06.226Z,18.00
2023-04-18T11:16:34.311Z,16.40
2023-04-18T11:19:01.316Z,17.00
2023-04-18T11:21:30.729Z,18.77
2023-04-18T11:23:58.205Z,18.93
2023-04-18T11:26:26.623Z,16.23
2023-04-18T11:28:57.746Z,17.37
2023-04-18T11:31:25.603Z,19.87
2023-04-18T11:33:52.755Z,18.87
2023-04-18T11:36:19.740Z,21.23
2023-04-18T11:38:46.806Z,20.83
2023-04-18T11:41:16.627Z,15.87
2023-04-18T11:43:45.014Z,18.70
2023-04-18T11:46:13.339Z,18.63
2023-04-18T11:48:42.292Z,18.47
2023-04-18T11:51:34.226Z,20.17
2023-04-18T11:54:01.379Z,21.47
2023-04-18T11:56:28.770Z,20.13
2023-04-18T11:58:56.393Z,18.07
2023-04-18T12:01:25.625Z,16.97
2023-04-18T12:04:08.241Z,19.33
2023-04-18T12:06:53.461Z,16.17
2023-04-18T12:09:25.016Z,16.50
2023-04-18T12:12:02.875Z,17.27
2023-04-18T12:14:30.435Z,14.70
2023-04-18T12:16:57.544Z,14.80
2023-04-18T12:19:29.401Z,15.93
2023-04-18T12:22:00.342Z,18.97
2023-04-18T12:24:28.979Z,17.33
2023-04-18T12:26:58.108Z,19.17
2023-04-18T12:29:29.663Z,18.97
2023-04-18T12:31:57.105Z,16.95
2023-04-18T12:34:24.206Z,17.08
2023-04-18T12:36:51.202Z,15.93
2023-04-18T12:39:18.079Z,19.80
2023-04-18T12:41:45.102Z,16.02
2023-04-18T12:44:12.818Z,16.50
2023-04-18T12:46:39.982Z,15.82
2023-04-18T12:49:06.973Z,16.27
2023-04-18T12:51:33.914Z,15.00
2023-04-18T12:54:00.889Z,15.95
2023-04-18T12:56:27.832Z,16.83
2023-04-18T12:58:54.743Z,14.93
2023-04-18T13:01:22.016Z,15.90
2023-04-18T13:03:59.936Z,14.70
2023-04-18T13:06:31.223Z,15.07
2023-04-18T13:08:58.857Z,14.40
2023-04-18T13:11:28.589Z,13.68
2023-04-18T13:13:55.663Z,15.60
2023-04-18T13:16:22.580Z,13.13
2023-04-18T13:18:49.495Z,14.40
2023-04-18T13:21:16.575Z,13.82
2023-04-18T13:23:43.483Z,13.80
2023-04-18T13:26:10.427Z,13.63
2023-04-18T13:28:37.332Z,15.00
2023-04-18T13:31:04.289Z,13.63
2023-04-18T13:33:31.186Z,12.63
2023-04-18T13:35:58.088Z,15.90
2023-04-18T13:38:25.058Z,13.07
2023-04-18T13:41:01.010Z,12.73
2023-04-18T13:43:35.734Z,11.90
2023-04-18T13:46:02.878Z,11.60
2023-04-18T13:48:29.791Z,12.93
2023-04-18T13:50:57.509Z,12.00
2023-04-18T13:53:24.427Z,13.15
2023-04-18T13:55:51.299Z,12.75
2023-04-18T13:58:18.185Z,12.80
2023-04-18T14:00:45.216Z,13.27
2023-04-18T14:03:12.612Z,12.90
2023-04-18T14:05:39.627Z,12.30
2023-04-18T14:08:06.698Z,12.23
2023-04-18T14:10:33.894Z,12.43
2023-04-18T14:13:00.893Z,12.73
2023-04-18T14:15:27.821Z,12.13
2023-04-18T14:17:54.870Z,12.77
2023-04-18T14:20:21.888Z,12.15
2023-04-18T14:22:52.865Z,12.50
2023-04-18T14:25:20.223Z,12.10
2023-04-18T14:27:47.772Z,11.63
2023-04-18T14:30:15.265Z,11.27
2023-04-18T14:32:42.309Z,11.53
2023-04-18T14:35:10.463Z,11.00
2023-04-18T14:37:37.388Z,11.83
2023-04-18T14:40:05.640Z,12.50
2023-04-18T14:42:32.587Z,12.27
2023-04-18T14:44:59.586Z,12.80
2023-04-18T14:47:31.750Z,12.63
2023-04-18T14:49:58.819Z,11.50
2023-04-18T14:52:25.780Z,11.47
2023-04-18T14:54:52.629Z,12.20
2023-04-18T14:57:19.692Z,13.73
2023-04-18T14:59:46.595Z,12.20
2023-04-18T15:02:13.533Z,14.40
2023-04-18T15:04:40.671Z,12.70
2023-04-18T15:07:07.718Z,13.87
2023-04-18T15:09:38.254Z,12.40
2023-04-18T15:12:06.156Z,12.27
2023-04-18T15:14:44.674Z,13.13
2023-04-18T15:17:14.325Z,12.20
2023-04-18T15:19:41.653Z,12.17
2023-04-18T15:22:11.280Z,13.07
2023-04-18T15:24:38.218Z,13.43
2023-04-18T15:27:06.270Z,13.47
2023-04-18T15:29:38.466Z,12.77
2023-04-18T15:32:06.434Z,14.53
2023-04-18T15:34:33.551Z,14.80
2023-04-18T15:37:00.504Z,12.90
2023-04-18T15:39:27.400Z,12.37
2023-04-18T15:41:54.621Z,12.90
2023-04-18T15:44:28.346Z,12.73
2023-04-18T15:47:02.778Z,12.47
2023-04-18T15:49:29.964Z,11.87
2023-04-18T15:52:08.103Z,12.90
2023-04-18T15:54:35.785Z,12.83
2023-04-18T15:57:03.106Z,13.93
2023-04-18T15:59:32.511Z,13.33
2023-04-18T16:02:02.440Z,13.20
2023-04-18T16:04:34.361Z,12.33
2023-04-18T16:07:01.406Z,13.07
2023-04-18T16:09:30.473Z,12.33
2023-04-18T16:11:58.538Z,15.77
2023-04-18T16:14:25.428Z,12.50
2023-04-18T16:16:53.736Z,12.80
2023-04-18T16:19:23.842Z,13.17
2023-04-18T16:21:50.940Z,11.80
2023-04-18T16:24:22.356Z,12.40
2023-04-18T16:26:50.699Z,12.97
2023-04-18T16:29:18.114Z,12.83
2023-04-18T16:31:47.568Z,11.97
2023-04-18T16:34:19.274Z,12.23
2023-04-18T16:36:47.709Z,12.17
2023-04-18T16:39:16.730Z,13.00
2023-04-18T16:41:43.803Z,11.63
2023-04-18T16:44:12.398Z,12.27
2023-04-18T16:46:40.945Z,12.53
2023-04-18T16:49:09.109Z,12.60
2023-04-18T16:51:38.977Z,12.37
2023-04-18T16:54:12.005Z,12.83
2023-04-18T16:56:39.839Z,12.53
2023-04-18T16:59:09.247Z,12.50
2023-04-18T17:01:36.617Z,11.90
2023-04-18T17:04:04.176Z,13.13
2023-04-18T17:06:32.028Z,11.93
2023-04-18T17:08:59.273Z,14.43
2023-04-18T17:11:32.099Z,11.83
2023-04-18T17:13:59.031Z,12.20
2023-04-18T17:16:26.791Z,11.30
2023-04-18T17:18:54.015Z,11.17
2023-04-18T17:21:21.236Z,11.27
2023-04-18T17:23:48.126Z,11.50
2023-04-18T17:26:15.011Z,12.23
2023-04-18T17:28:41.985Z,11.40
2023-04-18T17:31:11.476Z,10.93
2023-04-18T17:33:38.378Z,11.30
2023-04-18T17:36:06.435Z,11.93
2023-04-18T17:38:33.536Z,12.43
2023-04-18T17:41:02.347Z,11.60
2023-04-18T17:43:31.782Z,11.90
2023-04-18T17:46:03.582Z,12.00
2023-04-18T17:48:33.155Z,11.73
2023-04-18T17:51:00.101Z,12.20
2023-04-18T17:53:27.354Z,11.73
2023-04-18T17:55:55.559Z,11.83
2023-04-18T17:58:22.759Z,12.57
2023-04-18T18:00:49.633Z,12.73
2023-04-18T18:03:20.356Z,14.33
2023-04-18T18:05:49.103Z,11.97
2023-04-18T18:08:16.180Z,11.93
2023-04-18T18:10:44.391Z,12.00
2023-04-18T18:13:11.569Z,12.80
2023-04-18T18:15:38.537Z,12.30
2023-04-18T18:18:06.680Z,12.33
2023-04-18T18:20:33.745Z,12.30
2023-04-18T18:23:01.288Z,12.30
2023-04-18T18:25:28.663Z,12.57
2023-04-18T18:27:55.780Z,12.33
2023-04-18T18:30:22.841Z,12.17
2023-04-18T18:32:49.865Z,12.97
2023-04-18T18:35:16.931Z,12.40
2023-04-18T18:37:43.913Z,11.30
2023-04-18T18:40:11.232Z,12.77
2023-04-18T18:42:39.040Z,12.00
2023-04-18T18:47:53.252Z,11.23
2023-04-18T18:50:20.220Z,11.97
2023-04-18T18:52:47.176Z,11.97
2023-04-18T18:55:14.224Z,12.50
2023-04-18T18:57:41.244Z,12.70
2023-04-18T19:00:11.875Z,13.27
2023-04-18T19:02:39.768Z,13.20
2023-04-18T19:05:07.320Z,13.93
2023-04-18T19:07:34.273Z,12.90
2023-04-18T19:10:04.750Z,12.90
2023-04-18T19:12:31.816Z,13.50
2023-04-18T19:14:58.869Z,12.80
2023-04-18T19:17:28.858Z,14.23
2023-04-18T19:19:57.935Z,13.07
2023-04-18T19:22:27.498Z,11.87
2023-04-18T19:24:54.816Z,17.37
2023-04-18T19:27:24.969Z,12.57
2023-04-18T19:29:51.925Z,14.00
2023-04-18T19:32:19.032Z,14.87
2023-04-18T19:34:46.409Z,11.23
2023-04-18T19:37:13.451Z,12.80
2023-04-18T19:39:40.661Z,12.17
2023-04-18T19:42:08.637Z,12.87
2023-04-18T19:44:35.888Z,12.83
2023-04-18T19:47:03.022Z,12.40
2023-04-18T19:49:30.236Z,13.30
2023-04-18T19:51:57.203Z,12.87
2023-04-18T19:54:24.158Z,12.10
2023-04-18T19:56:51.228Z,13.13
2023-04-18T19:59:18.386Z,12.87
2023-04-18T20:01:45.515Z,13.80
2023-04-18T20:04:12.660Z,12.40
2023-04-18T20:06:40.550Z,12.37
2023-04-18T20:09:13.307Z,12.97
2023-04-18T20:11:41.638Z,13.20
2023-04-18T20:14:10.017Z,13.13
2023-04-18T20:16:36.993Z,12.40
2023-04-18T20:19:05.644Z,13.70
2023-04-18T20:21:32.627Z,13.37
2023-04-18T20:23:59.540Z,11.77
2023-04-18T20:26:26.748Z,13.27
2023-04-18T20:28:53.750Z,13.63
2023-04-18T20:31:20.994Z,13.33
2023-04-18T20:33:50.893Z,13.77
2023-04-18T20:36:18.250Z,12.97
2023-04-18T20:38:45.150Z,12.17
2023-04-18T20:41:18.171Z,12.13
2023-04-18T20:43:46.045Z,13.20
2023-04-18T20:46:13.200Z,16.90
2023-04-18T20:48:40.317Z,13.90
2023-04-18T20:51:07.518Z,15.20
2023-04-18T20:53:34.659Z,15.10
2023-04-18T20:56:06.380Z,15.23
2023-04-18T20:58:33.950Z,12.40
2023-04-18T21:01:01.171Z,13.50
2023-04-18T21:03:28.358Z,13.13
2023-04-18T21:05:56.046Z,13.83
2023-04-18T21:08:22.954Z,13.57
2023-04-18T21:10:50.095Z,13.63
2023-04-18T21:13:17.407Z,15.83
2023-04-18T21:15:44.309Z,12.33
2023-04-18T21:18:11.660Z,15.10
2023-04-18T21:20:38.660Z,14.37
2023-04-18T21:23:06.505Z,13.37
2023-04-18T21:25:34.612Z,15.13
2023-04-18T21:28:01.650Z,13.73
2023-04-18T21:30:28.827Z,16.23
2023-04-18T21:32:56.111Z,13.27
2023-04-18T21:35:24.818Z,18.43
2023-04-18T21:37:52.165Z,14.13
2023-04-18T21:40:19.519Z,16.20
2023-04-18T21:42:48.674Z,15.90
2023-04-18T21:45:17.584Z,16.10
2023-04-18T21:47:44.702Z,16.57
2023-04-18T21:50:14.362Z,15.63
2023-04-18T21:52:41.403Z,14.90
2023-04-18T21:55:11.412Z,19.57
2023-04-18T21:57:38.604Z,14.63
2023-04-18T22:00:08.588Z,17.07
2023-04-18T22:02:37.846Z,16.20
2023-04-18T22:05:05.794Z,14.93
2023-04-18T22:07:33.320Z,17.13
2023-04-18T22:10:01.030Z,17.57
2023-04-18T22:12:27.973Z,16.53
2023-04-18T22:14:55.005Z,16.90
2023-04-18T22:17:22.075Z,16.33
2023-04-18T22:19:50.387Z,16.67
2023-04-18T22:22:17.373Z,14.73
2023-04-18T22:24:46.806Z,14.63
2023-04-18T22:27:14.594Z,18.20
2023-04-18T22:29:41.501Z,15.93
2023-04-18T22:32:08.415Z,18.40
2023-04-18T22:34:35.331Z,15.93
2023-04-18T22:37:02.330Z,16.00
2023-04-18T22:39:31.141Z,17.77
2023-04-18T22:41:58.014Z,17.70
2023-04-18T22:44:25.030Z,17.13
2023-04-18T22:46:54.578Z,18.97
2023-04-18T22:49:22.273Z,18.07
2023-04-18T22:51:49.611Z,14.87
2023-04-18T22:54:17.041Z,15.43
2023-04-18T22:56:44.090Z,19.90
2023-04-18T22:59:11.141Z,21.40
2023-04-18T23:01:38.087Z,15.53
2023-04-18T23:04:05.222Z,16.97
2023-04-18T23:06:32.694Z,14.53
2023-04-18T23:08:59.743Z,16.87
2023-04-18T23:11:26.893Z,21.37
2023-04-18T23:13:53.754Z,14.77
2023-04-18T23:16:20.746Z,16.90
2023-04-18T23:18:47.805Z,15.13
2023-04-18T23:21:14.782Z,14.60
2023-04-18T23:23:41.694Z,15.00
2023-04-18T23:26:13.819Z,14.50
2023-04-18T23:28:42.482Z,13.13
2023-04-18T23:31:09.543Z,14.73
2023-04-18T23:33:36.546Z,16.97
2023-04-18T23:36:03.745Z,13.03
2023-04-18T23:38:31.054Z,15.53
2023-04-18T23:40:58.026Z,13.70
2023-04-18T23:43:24.999Z,13.27
2023-04-18T23:45:51.905Z,12.30
2023-04-18T23:48:18.845Z,11.37
2023-04-18T23:50:50.313Z,14.73
2023-04-18T23:53:17.447Z,12.23
2023-04-18T23:55:44.400Z,14.97
2023-04-18T23:58:11.325Z,12.33
